createdAt,value
2018-06-07T00:00:25.938Z,18.63
2018-06-07T00:00:57.101Z,18.62
2018-06-07T00:01:28.276Z,18.61
2018-06-07T00:01:59.443Z,18.61
2018-06-07T00:02:30.609Z,18.61
2018-06-07T00:03:01.841Z,18.60
2018-06-07T00:03:33.117Z,18.60
2018-06-07T00:04:04.357Z,18.59
2018-06-07T00:04:35.590Z,18.59
2018-06-07T00:05:06.853Z,18.59
2018-06-07T00:05:38.083Z,18.58
2018-06-07T00:06:09.368Z,18.57
2018-06-07T00:06:40.589Z,18.58
2018-06-07T00:07:11.756Z,18.61
2018-06-07T00:07:42.929Z,18.64
2018-06-07T00:08:14.144Z,18.65
2018-06-07T00:08:45.335Z,18.67
2018-06-07T00:09:16.507Z,18.68
2018-06-07T00:09:47.674Z,18.71
2018-06-07T00:10:18.893Z,18.73
2018-06-07T00:10:50.125Z,18.74
2018-06-07T00:11:21.373Z,18.76
2018-06-07T00:11:52.532Z,18.77
2018-06-07T00:12:23.749Z,18.79
2018-06-07T00:12:54.923Z,18.82
2018-06-07T00:13:26.096Z,18.85
2018-06-07T00:13:57.264Z,18.88
2018-06-07T00:14:28.446Z,18.91
2018-06-07T00:14:59.669Z,18.94
2018-06-07T00:15:30.855Z,18.94
2018-06-07T00:16:02.016Z,18.94
2018-06-07T00:16:33.282Z,18.93
2018-06-07T00:17:04.469Z,18.92
2018-06-07T00:17:35.645Z,18.91
2018-06-07T00:18:06.812Z,18.89
2018-06-07T00:18:38.015Z,18.88
2018-06-07T00:19:09.261Z,18.87
2018-06-07T00:19:40.440Z,18.86
2018-06-07T00:20:11.605Z,18.85
2018-06-07T00:20:42.777Z,18.82
2018-06-07T00:21:13.951Z,18.77
2018-06-07T00:21:45.122Z,18.74
2018-06-07T00:22:16.293Z,18.74
2018-06-07T00:22:47.473Z,18.71
2018-06-07T00:23:18.644Z,18.68
2018-06-07T00:23:49.809Z,18.67
2018-06-07T00:24:20.987Z,18.64
2018-06-07T00:24:52.210Z,18.62
2018-06-07T00:25:23.388Z,18.60
2018-06-07T00:25:54.610Z,18.59
2018-06-07T00:26:25.823Z,18.56
2018-06-07T00:26:57.072Z,18.57
2018-06-07T00:27:28.304Z,18.58
2018-06-07T00:27:59.482Z,18.60
2018-06-07T00:28:30.697Z,18.62
2018-06-07T00:29:01.880Z,18.63
2018-06-07T00:29:33.109Z,18.64
2018-06-07T00:30:04.365Z,18.62
2018-06-07T00:30:38.727Z,18.61
2018-06-07T00:31:09.896Z,18.61
2018-06-07T00:31:41.108Z,18.59
2018-06-07T00:32:12.278Z,18.56
2018-06-07T00:32:43.466Z,18.55
2018-06-07T00:33:14.685Z,18.54
2018-06-07T00:33:45.912Z,18.52
2018-06-07T00:34:17.128Z,18.53
2018-06-07T00:34:48.304Z,18.52
2018-06-07T00:35:19.491Z,18.53
2018-06-07T00:35:51.708Z,18.54
2018-06-07T00:36:22.924Z,18.52
2018-06-07T00:36:54.180Z,18.53
2018-06-07T00:37:25.353Z,18.51
2018-06-07T00:37:56.520Z,18.50
2018-06-07T00:38:27.694Z,18.49
2018-06-07T00:38:58.922Z,18.46
2018-06-07T00:39:30.154Z,18.45
2018-06-07T00:40:01.330Z,18.30
2018-06-07T00:40:32.500Z,18.47
2018-06-07T00:41:03.720Z,18.49
2018-06-07T00:41:34.897Z,18.51
2018-06-07T00:42:06.140Z,18.51
2018-06-07T00:42:37.300Z,18.53
2018-06-07T00:43:08.529Z,18.56
2018-06-07T00:43:39.759Z,18.55
2018-06-07T00:44:10.936Z,18.56
2018-06-07T00:44:42.112Z,18.55
2018-06-07T00:45:13.289Z,18.57
2018-06-07T00:45:44.456Z,18.56
2018-06-07T00:46:15.738Z,18.59
2018-06-07T00:46:46.984Z,18.63
2018-06-07T00:47:18.207Z,18.64
2018-06-07T00:47:49.445Z,18.65
2018-06-07T00:48:20.624Z,18.67
2018-06-07T00:48:51.789Z,18.68
2018-06-07T00:49:22.966Z,18.70
2018-06-07T00:49:54.225Z,18.73
2018-06-07T00:50:25.472Z,18.74
2018-06-07T00:50:56.639Z,18.76
2018-06-07T00:51:27.861Z,18.75
2018-06-07T00:51:59.040Z,18.76
2018-06-07T00:52:30.228Z,18.74
2018-06-07T00:53:01.455Z,18.70
2018-06-07T00:53:32.628Z,18.69
2018-06-07T00:54:03.812Z,18.72
2018-06-07T00:54:35.032Z,18.74
2018-06-07T00:55:06.209Z,18.71
2018-06-07T00:55:37.424Z,18.69
2018-06-07T00:56:08.584Z,18.67
2018-06-07T00:56:39.757Z,18.65
2018-06-07T00:57:10.925Z,18.65
2018-06-07T00:57:42.093Z,18.64
2018-06-07T00:58:13.260Z,18.62
2018-06-07T00:58:44.420Z,18.60
2018-06-07T00:59:15.599Z,18.60
2018-06-07T00:59:46.777Z,18.57
2018-06-07T01:00:18.020Z,18.56
2018-06-07T01:00:49.196Z,18.55
2018-06-07T01:01:20.384Z,18.54
2018-06-07T01:01:51.558Z,18.53
2018-06-07T01:02:22.769Z,18.53
2018-06-07T01:02:53.972Z,18.53
2018-06-07T01:03:25.138Z,18.50
2018-06-07T01:03:56.300Z,18.46
2018-06-07T01:04:27.477Z,18.41
2018-06-07T01:04:58.647Z,18.39
2018-06-07T01:05:29.869Z,18.36
2018-06-07T01:06:01.218Z,18.35
2018-06-07T01:06:32.471Z,18.31
2018-06-07T01:07:03.644Z,18.25
2018-06-07T01:07:34.815Z,18.19
2018-06-07T01:08:05.984Z,18.14
2018-06-07T01:08:37.209Z,18.10
2018-06-07T01:09:08.403Z,18.08
2018-06-07T01:09:39.564Z,18.09
2018-06-07T01:10:10.774Z,18.10
2018-06-07T01:10:41.958Z,18.12
2018-06-07T01:11:13.193Z,18.13
2018-06-07T01:11:44.372Z,18.13
2018-06-07T01:12:15.550Z,18.14
2018-06-07T01:12:46.725Z,18.14
2018-06-07T01:13:17.951Z,18.15
2018-06-07T01:13:49.125Z,18.16
2018-06-07T01:14:20.292Z,18.17
2018-06-07T01:14:51.521Z,18.17
2018-06-07T01:15:22.731Z,18.17
2018-06-07T01:15:53.901Z,18.17
2018-06-07T01:16:25.068Z,18.16
2018-06-07T01:16:56.276Z,18.16
2018-06-07T01:17:27.507Z,18.17
2018-06-07T01:17:58.691Z,18.18
2018-06-07T01:18:29.932Z,18.20
2018-06-07T01:19:01.114Z,18.21
2018-06-07T01:19:32.281Z,18.19
2018-06-07T01:20:03.825Z,18.17
2018-06-07T01:20:35.001Z,18.15
2018-06-07T01:21:06.237Z,18.17
2018-06-07T01:21:37.420Z,18.18
2018-06-07T01:22:08.622Z,18.18
2018-06-07T01:22:39.792Z,18.17
2018-06-07T01:23:10.974Z,18.05
2018-06-07T01:23:42.141Z,18.15
2018-06-07T01:24:13.313Z,18.15
2018-06-07T01:24:44.482Z,18.16
2018-06-07T01:25:15.648Z,18.17
2018-06-07T01:25:46.830Z,18.17
2018-06-07T01:26:18.052Z,18.19
2018-06-07T01:26:49.225Z,18.20
2018-06-07T01:27:20.433Z,18.20
2018-06-07T01:27:51.597Z,18.18
2018-06-07T01:28:22.808Z,18.19
2018-06-07T01:28:53.983Z,18.19
2018-06-07T01:29:25.251Z,18.19
2018-06-07T01:29:56.424Z,18.19
2018-06-07T01:30:27.661Z,18.22
2018-06-07T01:30:58.844Z,18.23
2018-06-07T01:31:30.029Z,18.24
2018-06-07T01:32:01.255Z,18.25
2018-06-07T01:32:32.430Z,18.27
2018-06-07T01:33:03.650Z,18.27
2018-06-07T01:33:34.868Z,18.27
2018-06-07T01:34:06.110Z,18.28
2018-06-07T01:34:37.307Z,18.29
2018-06-07T01:35:08.545Z,18.30
2018-06-07T01:35:39.732Z,18.32
2018-06-07T01:36:10.911Z,18.32
2018-06-07T01:36:42.085Z,18.32
2018-06-07T01:37:13.256Z,18.30
2018-06-07T01:37:44.467Z,18.28
2018-06-07T01:38:15.680Z,18.25
2018-06-07T01:38:46.858Z,18.25
2018-06-07T01:39:18.069Z,18.24
2018-06-07T01:39:49.297Z,18.23
2018-06-07T01:40:20.481Z,18.22
2018-06-07T01:40:51.689Z,18.19
2018-06-07T01:41:22.918Z,18.17
2018-06-07T01:41:54.141Z,18.16
2018-06-07T01:42:25.320Z,18.15
2018-06-07T01:42:56.489Z,18.14
2018-06-07T01:43:27.656Z,18.15
2018-06-07T01:43:58.885Z,18.17
2018-06-07T01:44:30.065Z,18.16
2018-06-07T01:45:01.243Z,18.17
2018-06-07T01:45:32.418Z,18.17
2018-06-07T01:46:03.681Z,18.17
2018-06-07T01:46:34.853Z,18.16
2018-06-07T01:47:06.068Z,18.17
2018-06-07T01:47:37.235Z,18.17
2018-06-07T01:48:08.448Z,18.20
2018-06-07T01:48:39.704Z,18.19
2018-06-07T01:49:10.881Z,18.20
2018-06-07T01:49:42.106Z,18.20
2018-06-07T01:50:13.337Z,18.21
2018-06-07T01:50:44.566Z,18.22
2018-06-07T01:51:15.832Z,18.21
2018-06-07T01:51:47.072Z,18.20
2018-06-07T01:52:18.254Z,18.18
2018-06-07T01:52:49.428Z,18.12
2018-06-07T01:53:20.597Z,18.07
2018-06-07T01:53:51.769Z,18.04
2018-06-07T01:54:22.992Z,18.04
2018-06-07T01:54:54.172Z,18.05
2018-06-07T01:55:25.377Z,18.06
2018-06-07T01:55:56.545Z,18.06
2018-06-07T01:56:27.760Z,18.07
2018-06-07T01:56:58.952Z,18.08
2018-06-07T01:57:30.171Z,18.08
2018-06-07T01:58:01.393Z,18.08
2018-06-07T01:58:32.570Z,18.07
2018-06-07T01:59:03.735Z,18.05
2018-06-07T01:59:34.949Z,18.06
2018-06-07T02:00:06.754Z,18.07
2018-06-07T02:00:37.979Z,18.07
2018-06-07T02:01:09.167Z,18.07
2018-06-07T02:01:40.340Z,18.09
2018-06-07T02:02:11.509Z,18.10
2018-06-07T02:02:42.677Z,18.13
2018-06-07T02:03:13.889Z,18.12
2018-06-07T02:03:45.066Z,18.13
2018-06-07T02:04:16.278Z,18.13
2018-06-07T02:04:47.492Z,18.13
2018-06-07T02:05:18.669Z,18.12
2018-06-07T02:05:49.840Z,18.12
2018-06-07T02:06:21.067Z,18.09
2018-06-07T02:06:52.245Z,18.08
2018-06-07T02:07:23.470Z,18.07
2018-06-07T02:07:54.645Z,18.06
2018-06-07T02:08:25.813Z,18.06
2018-06-07T02:08:56.975Z,18.07
2018-06-07T02:09:28.181Z,18.07
2018-06-07T02:09:59.405Z,18.06
2018-06-07T02:10:30.584Z,18.05
2018-06-07T02:11:01.753Z,18.05
2018-06-07T02:11:32.977Z,18.05
2018-06-07T02:12:04.156Z,18.07
2018-06-07T02:12:35.331Z,18.08
2018-06-07T02:13:06.498Z,18.07
2018-06-07T02:13:37.671Z,18.06
2018-06-07T02:14:08.904Z,18.08
2018-06-07T02:14:40.122Z,18.12
2018-06-07T02:15:11.295Z,18.13
2018-06-07T02:15:42.465Z,18.14
2018-06-07T02:16:13.652Z,18.15
2018-06-07T02:16:44.811Z,18.17
2018-06-07T02:17:15.985Z,18.16
2018-06-07T02:17:47.244Z,18.16
2018-06-07T02:18:18.429Z,18.15
2018-06-07T02:18:49.598Z,18.14
2018-06-07T02:19:20.812Z,18.13
2018-06-07T02:19:52.034Z,18.12
2018-06-07T02:20:23.211Z,18.10
2018-06-07T02:20:54.380Z,18.10
2018-06-07T02:21:25.599Z,18.09
2018-06-07T02:21:56.768Z,18.07
2018-06-07T02:22:27.935Z,18.06
2018-06-07T02:22:59.171Z,18.03
2018-06-07T02:23:30.405Z,18.00
2018-06-07T02:24:01.634Z,17.99
2018-06-07T02:24:32.909Z,17.99
2018-06-07T02:25:04.085Z,18.00
2018-06-07T02:25:35.260Z,18.00
2018-06-07T02:26:06.489Z,18.00
2018-06-07T02:26:37.725Z,18.03
2018-06-07T02:27:08.918Z,18.04
2018-06-07T02:27:40.158Z,18.06
2018-06-07T02:28:11.345Z,18.07
2018-06-07T02:28:42.528Z,18.08
2018-06-07T02:29:13.804Z,18.08
2018-06-07T02:29:45.033Z,18.06
2018-06-07T02:30:17.169Z,18.01
2018-06-07T02:30:48.345Z,18.00
2018-06-07T02:31:19.546Z,17.97
2018-06-07T02:31:50.760Z,17.91
2018-06-07T02:32:21.959Z,17.91
2018-06-07T02:32:53.141Z,17.91
2018-06-07T02:33:24.361Z,17.90
2018-06-07T02:33:55.592Z,17.86
2018-06-07T02:34:26.772Z,17.85
2018-06-07T02:34:57.953Z,17.85
2018-06-07T02:35:29.169Z,17.82
2018-06-07T02:36:00.353Z,17.82
2018-06-07T02:36:31.525Z,17.83
2018-06-07T02:37:02.700Z,17.83
2018-06-07T02:37:33.873Z,17.82
2018-06-07T02:38:05.145Z,17.80
2018-06-07T02:38:36.302Z,17.78
2018-06-07T02:39:07.524Z,17.76
2018-06-07T02:39:38.756Z,17.74
2018-06-07T02:40:09.984Z,17.72
2018-06-07T02:40:41.256Z,17.70
2018-06-07T02:41:12.495Z,17.67
2018-06-07T02:41:43.682Z,17.65
2018-06-07T02:42:14.894Z,17.66
2018-06-07T02:42:46.080Z,17.65
2018-06-07T02:43:17.303Z,17.66
2018-06-07T02:43:48.480Z,17.67
2018-06-07T02:44:19.694Z,17.66
2018-06-07T02:44:50.911Z,17.66
2018-06-07T02:45:22.091Z,17.66
2018-06-07T02:45:53.256Z,17.65
2018-06-07T02:46:24.424Z,17.64
2018-06-07T02:46:55.660Z,17.64
2018-06-07T02:47:26.842Z,17.63
2018-06-07T02:47:58.013Z,17.64
2018-06-07T02:48:29.236Z,17.65
2018-06-07T02:49:00.411Z,17.66
2018-06-07T02:49:31.622Z,17.68
2018-06-07T02:50:02.798Z,17.69
2018-06-07T02:50:34.025Z,17.72
2018-06-07T02:51:05.260Z,17.72
2018-06-07T02:51:36.482Z,17.74
2018-06-07T02:52:07.672Z,17.75
2018-06-07T02:52:38.853Z,17.78
2018-06-07T02:53:10.028Z,17.80
2018-06-07T02:53:41.193Z,17.79
2018-06-07T02:54:12.400Z,17.80
2018-06-07T02:54:43.576Z,17.81
2018-06-07T02:55:14.797Z,17.80
2018-06-07T02:55:46.021Z,17.79
2018-06-07T02:56:17.232Z,17.78
2018-06-07T02:56:48.412Z,17.80
2018-06-07T02:57:19.582Z,17.80
2018-06-07T02:57:50.760Z,17.81
2018-06-07T02:58:21.973Z,17.82
2018-06-07T02:58:53.146Z,17.82
2018-06-07T02:59:24.325Z,17.83
2018-06-07T02:59:55.548Z,17.80
2018-06-07T03:00:26.780Z,17.80
2018-06-07T03:00:57.948Z,17.79
2018-06-07T03:01:29.243Z,17.81
2018-06-07T03:02:00.409Z,17.82
2018-06-07T03:02:31.633Z,17.81
2018-06-07T03:03:02.822Z,17.80
2018-06-07T03:03:34.016Z,17.75
2018-06-07T03:04:05.247Z,17.79
2018-06-07T03:04:36.427Z,17.81
2018-06-07T03:05:07.593Z,17.82
2018-06-07T03:05:38.870Z,17.83
2018-06-07T03:06:10.052Z,17.86
2018-06-07T03:06:41.232Z,17.89
2018-06-07T03:07:12.410Z,17.92
2018-06-07T03:07:43.626Z,17.91
2018-06-07T03:08:14.834Z,17.94
2018-06-07T03:08:46.066Z,17.97
2018-06-07T03:09:17.302Z,17.99
2018-06-07T03:09:48.479Z,18.01
2018-06-07T03:10:19.697Z,18.04
2018-06-07T03:10:50.969Z,18.05
2018-06-07T03:11:22.156Z,18.11
2018-06-07T03:11:53.381Z,18.15
2018-06-07T03:12:24.604Z,18.16
2018-06-07T03:12:55.773Z,18.20
2018-06-07T03:13:26.941Z,18.21
2018-06-07T03:13:58.109Z,18.22
2018-06-07T03:14:29.338Z,18.25
2018-06-07T03:15:00.516Z,18.24
2018-06-07T03:15:31.680Z,18.22
2018-06-07T03:16:02.905Z,18.24
2018-06-07T03:16:34.084Z,18.27
2018-06-07T03:17:05.316Z,18.31
2018-06-07T03:17:36.532Z,18.34
2018-06-07T03:18:07.763Z,18.38
2018-06-07T03:18:38.948Z,18.44
2018-06-07T03:19:10.183Z,18.50
2018-06-07T03:19:41.364Z,18.56
2018-06-07T03:20:12.584Z,18.61
2018-06-07T03:20:43.767Z,18.65
2018-06-07T03:21:14.928Z,18.71
2018-06-07T03:21:46.105Z,18.77
2018-06-07T03:22:17.323Z,18.84
2018-06-07T03:22:48.537Z,18.91
2018-06-07T03:23:19.801Z,18.97
2018-06-07T03:23:50.972Z,19.00
2018-06-07T03:24:22.144Z,19.03
2018-06-07T03:24:53.317Z,19.13
2018-06-07T03:25:24.485Z,19.21
2018-06-07T03:25:55.698Z,19.30
2018-06-07T03:26:26.922Z,19.39
2018-06-07T03:26:58.156Z,19.42
2018-06-07T03:27:29.384Z,19.49
2018-06-07T03:28:00.568Z,19.56
2018-06-07T03:28:31.775Z,19.62
2018-06-07T03:29:03.002Z,19.62
2018-06-07T03:29:34.180Z,19.61
2018-06-07T03:30:05.398Z,19.63
2018-06-07T03:30:36.580Z,19.67
2018-06-07T03:31:07.808Z,19.73
2018-06-07T03:31:38.992Z,19.80
2018-06-07T03:32:10.165Z,19.84
2018-06-07T03:32:41.394Z,19.92
2018-06-07T03:33:12.624Z,19.97
2018-06-07T03:33:43.846Z,20.00
2018-06-07T03:34:15.024Z,20.08
2018-06-07T03:34:46.196Z,20.19
2018-06-07T03:35:17.414Z,20.28
2018-06-07T03:35:48.646Z,20.38
2018-06-07T03:36:19.829Z,20.48
2018-06-07T03:36:50.996Z,20.58
2018-06-07T03:37:22.225Z,20.69
2018-06-07T03:37:53.492Z,20.73
2018-06-07T03:38:24.680Z,20.73
2018-06-07T03:38:55.857Z,20.76
2018-06-07T03:39:27.081Z,20.85
2018-06-07T03:39:58.280Z,20.93
2018-06-07T03:40:29.456Z,21.02
2018-06-07T03:41:00.630Z,21.06
2018-06-07T03:41:31.799Z,21.12
2018-06-07T03:42:03.068Z,21.13
2018-06-07T03:42:34.255Z,21.11
2018-06-07T03:43:05.432Z,21.15
2018-06-07T03:43:36.660Z,21.20
2018-06-07T03:44:07.893Z,21.24
2018-06-07T03:44:39.074Z,21.26
2018-06-07T03:45:10.256Z,21.30
2018-06-07T03:45:41.464Z,21.37
2018-06-07T03:46:12.644Z,21.42
2018-06-07T03:46:43.812Z,21.50
2018-06-07T03:47:14.985Z,21.59
2018-06-07T03:47:46.165Z,21.55
2018-06-07T03:48:17.349Z,21.68
2018-06-07T03:48:48.528Z,21.78
2018-06-07T03:49:19.801Z,21.85
2018-06-07T03:49:51.030Z,21.89
2018-06-07T03:50:22.269Z,21.88
2018-06-07T03:50:53.522Z,21.87
2018-06-07T03:51:24.740Z,21.86
2018-06-07T03:51:55.917Z,21.87
2018-06-07T03:52:27.093Z,21.88
2018-06-07T03:52:58.265Z,21.89
2018-06-07T03:53:29.445Z,21.91
2018-06-07T03:54:00.677Z,21.83
2018-06-07T03:54:31.918Z,21.78
2018-06-07T03:55:03.130Z,21.70
2018-06-07T03:55:34.310Z,21.58
2018-06-07T03:56:05.488Z,21.43
2018-06-07T03:56:36.721Z,21.35
2018-06-07T03:57:07.902Z,21.27
2018-06-07T03:57:39.153Z,21.29
2018-06-07T03:58:10.349Z,21.32
2018-06-07T03:58:41.537Z,21.35
2018-06-07T03:59:12.776Z,21.46
2018-06-07T03:59:44.010Z,21.61
2018-06-07T04:00:15.194Z,21.70
2018-06-07T04:00:46.388Z,21.75
2018-06-07T04:01:17.568Z,21.83
2018-06-07T04:01:48.846Z,21.95
2018-06-07T04:02:20.085Z,22.06
2018-06-07T04:02:51.325Z,22.13
2018-06-07T04:03:22.557Z,22.27
2018-06-07T04:03:53.737Z,22.32
2018-06-07T04:04:24.914Z,22.30
2018-06-07T04:04:56.141Z,22.27
2018-06-07T04:05:27.326Z,22.13
2018-06-07T04:05:58.500Z,21.95
2018-06-07T04:06:29.676Z,21.76
2018-06-07T04:07:00.890Z,21.61
2018-06-07T04:07:32.095Z,21.48
2018-06-07T04:08:03.326Z,21.39
2018-06-07T04:08:34.508Z,21.34
2018-06-07T04:09:05.729Z,21.37
2018-06-07T04:09:36.912Z,21.36
2018-06-07T04:10:08.096Z,21.44
2018-06-07T04:10:39.282Z,21.57
2018-06-07T04:11:10.462Z,21.77
2018-06-07T04:11:41.648Z,21.94
2018-06-07T04:12:12.829Z,22.13
2018-06-07T04:12:44.006Z,22.21
2018-06-07T04:13:15.233Z,22.22
2018-06-07T04:13:46.468Z,22.12
2018-06-07T04:14:17.652Z,22.06
2018-06-07T04:14:48.888Z,21.98
2018-06-07T04:15:20.076Z,21.88
2018-06-07T04:15:51.301Z,21.86
2018-06-07T04:16:22.541Z,21.89
2018-06-07T04:16:53.729Z,21.97
2018-06-07T04:17:24.965Z,22.09
2018-06-07T04:17:56.158Z,22.25
2018-06-07T04:18:27.426Z,22.42
2018-06-07T04:18:58.616Z,22.59
2018-06-07T04:19:29.839Z,22.74
2018-06-07T04:20:01.077Z,22.81
2018-06-07T04:20:32.261Z,22.83
2018-06-07T04:21:03.436Z,22.78
2018-06-07T04:21:34.657Z,22.70
2018-06-07T04:22:05.844Z,22.61
2018-06-07T04:22:37.018Z,22.55
2018-06-07T04:23:08.193Z,22.54
2018-06-07T04:23:39.400Z,22.52
2018-06-07T04:24:10.571Z,22.52
2018-06-07T04:24:41.802Z,22.49
2018-06-07T04:25:12.990Z,22.48
2018-06-07T04:25:44.166Z,22.50
2018-06-07T04:26:15.344Z,22.46
2018-06-07T04:26:46.572Z,22.55
2018-06-07T04:27:17.845Z,22.62
2018-06-07T04:27:49.025Z,22.72
2018-06-07T04:28:20.338Z,22.80
2018-06-07T04:28:51.520Z,23.03
2018-06-07T04:29:22.755Z,23.30
2018-06-07T04:29:53.941Z,23.55
2018-06-07T04:30:25.152Z,23.77
2018-06-07T04:30:56.389Z,24.00
2018-06-07T04:31:27.636Z,24.06
2018-06-07T04:31:58.840Z,24.10
2018-06-07T04:32:30.105Z,23.98
2018-06-07T04:33:01.312Z,23.92
2018-06-07T04:33:32.481Z,23.87
2018-06-07T04:34:03.758Z,23.71
2018-06-07T04:34:34.985Z,23.65
2018-06-07T04:35:06.237Z,23.58
2018-06-07T04:35:37.420Z,23.52
2018-06-07T04:36:08.600Z,23.50
2018-06-07T04:36:39.846Z,23.60
2018-06-07T04:37:11.034Z,23.76
2018-06-07T04:37:42.232Z,23.88
2018-06-07T04:38:13.441Z,23.87
2018-06-07T04:38:44.642Z,23.86
2018-06-07T04:39:15.870Z,23.90
2018-06-07T04:39:47.113Z,23.87
2018-06-07T04:40:18.300Z,23.44
2018-06-07T04:40:49.540Z,23.27
2018-06-07T04:41:20.720Z,23.26
2018-06-07T04:41:51.892Z,23.33
2018-06-07T04:42:23.076Z,23.40
2018-06-07T04:42:54.246Z,23.42
2018-06-07T04:43:25.495Z,23.48
2018-06-07T04:43:56.718Z,23.55
2018-06-07T04:44:27.957Z,23.57
2018-06-07T04:44:59.137Z,23.43
2018-06-07T04:45:30.401Z,23.31
2018-06-07T04:46:01.590Z,23.12
2018-06-07T04:46:32.840Z,23.08
2018-06-07T04:47:04.125Z,23.01
2018-06-07T04:47:35.321Z,22.98
2018-06-07T04:48:06.537Z,22.99
2018-06-07T04:48:37.777Z,23.01
2018-06-07T04:49:08.960Z,23.02
2018-06-07T04:49:40.153Z,23.01
2018-06-07T04:50:11.337Z,23.02
2018-06-07T04:50:42.553Z,23.05
2018-06-07T04:51:13.749Z,23.16
2018-06-07T04:51:45.023Z,23.37
2018-06-07T04:52:16.213Z,23.57
2018-06-07T04:52:47.453Z,23.79
2018-06-07T04:53:18.674Z,24.01
2018-06-07T04:53:49.903Z,24.25
2018-06-07T04:54:21.094Z,24.44
2018-06-07T04:54:52.330Z,24.49
2018-06-07T04:55:23.550Z,24.52
2018-06-07T04:55:54.741Z,24.53
2018-06-07T04:56:25.939Z,24.51
2018-06-07T04:56:57.156Z,24.48
2018-06-07T04:57:28.328Z,24.39
2018-06-07T04:57:59.492Z,24.36
2018-06-07T04:58:30.724Z,24.45
2018-06-07T04:59:01.917Z,24.55
2018-06-07T04:59:33.145Z,24.76
2018-06-07T05:00:04.387Z,25.06
2018-06-07T05:00:35.663Z,25.29
2018-06-07T05:01:06.862Z,25.56
2018-06-07T05:01:38.135Z,25.82
2018-06-07T05:02:09.313Z,26.06
2018-06-07T05:02:40.507Z,26.18
2018-06-07T05:03:11.691Z,26.39
2018-06-07T05:03:42.894Z,26.55
2018-06-07T05:04:14.069Z,26.38
2018-06-07T05:04:45.257Z,26.44
2018-06-07T05:05:16.436Z,26.38
2018-06-07T05:05:47.705Z,26.29
2018-06-07T05:06:18.888Z,25.90
2018-06-07T05:06:50.070Z,25.78
2018-06-07T05:07:21.278Z,25.98
2018-06-07T05:07:52.448Z,26.14
2018-06-07T05:09:00.988Z,25.86
2018-06-07T05:09:32.183Z,26.15
2018-06-07T05:10:03.367Z,26.39
2018-06-07T05:10:34.593Z,26.67
2018-06-07T05:11:05.815Z,26.92
2018-06-07T05:11:37.002Z,27.06
2018-06-07T05:12:08.188Z,27.12
2018-06-07T05:12:39.377Z,27.10
2018-06-07T05:13:10.609Z,26.97
2018-06-07T05:13:41.802Z,27.13
2018-06-07T05:14:13.003Z,27.22
2018-06-07T05:14:44.192Z,27.32
2018-06-07T05:15:15.442Z,27.27
2018-06-07T05:15:46.677Z,27.45
2018-06-07T05:16:17.906Z,27.57
2018-06-07T05:16:49.108Z,27.68
2018-06-07T05:18:06.077Z,28.00
2018-06-07T05:18:37.265Z,27.92
2018-06-07T05:19:08.440Z,28.03
2018-06-07T05:19:39.608Z,28.16
2018-06-07T05:20:10.795Z,28.30
2018-06-07T05:20:42.024Z,28.48
2018-06-07T05:21:13.250Z,28.57
2018-06-07T05:21:44.534Z,28.56
2018-06-07T05:22:15.745Z,28.55
2018-06-07T05:22:46.921Z,28.62
2018-06-07T05:23:18.109Z,28.67
2018-06-07T05:23:49.344Z,28.71
2018-06-07T05:24:20.598Z,28.65
2018-06-07T05:24:51.849Z,28.70
2018-06-07T05:25:23.036Z,28.90
2018-06-07T05:25:54.256Z,28.92
2018-06-07T05:26:25.465Z,29.04
2018-06-07T05:26:56.693Z,28.98
2018-06-07T05:27:27.888Z,28.64
2018-06-07T05:27:59.079Z,28.48
2018-06-07T05:28:30.317Z,28.19
2018-06-07T05:29:01.495Z,27.90
2018-06-07T05:29:32.729Z,27.83
2018-06-07T05:30:03.922Z,27.84
2018-06-07T05:30:35.114Z,27.62
2018-06-07T05:31:06.353Z,27.30
2018-06-07T05:31:37.581Z,27.23
2018-06-07T05:32:09.813Z,27.33
2018-06-07T05:32:40.994Z,27.44
2018-06-07T05:33:12.172Z,27.55
2018-06-07T05:33:43.443Z,27.57
2018-06-07T05:34:14.636Z,27.65
2018-06-07T05:34:45.815Z,27.66
2018-06-07T05:35:17.045Z,27.21
2018-06-07T05:35:48.276Z,27.21
2018-06-07T05:36:19.517Z,27.26
2018-06-07T05:36:50.782Z,27.35
2018-06-07T05:37:22.057Z,27.38
2018-06-07T05:37:53.250Z,27.46
2018-06-07T05:38:24.433Z,27.51
2018-06-07T05:38:55.711Z,27.63
2018-06-07T05:39:26.888Z,27.67
2018-06-07T05:39:58.121Z,27.67
2018-06-07T05:40:29.313Z,27.65
2018-06-07T05:41:00.505Z,27.59
2018-06-07T05:41:31.737Z,27.23
2018-06-07T05:42:02.921Z,27.46
2018-06-07T05:42:34.104Z,27.36
2018-06-07T05:43:05.322Z,27.43
2018-06-07T05:43:36.541Z,27.54
2018-06-07T05:44:07.783Z,27.59
2018-06-07T05:44:38.972Z,27.51
2018-06-07T05:45:10.151Z,27.34
2018-06-07T05:45:41.336Z,27.08
2018-06-07T05:46:12.525Z,26.98
2018-06-07T05:46:43.704Z,27.00
2018-06-07T05:47:14.882Z,26.98
2018-06-07T05:47:46.076Z,27.00
2018-06-07T05:48:17.377Z,27.01
2018-06-07T05:48:48.570Z,27.04
2018-06-07T05:49:19.781Z,26.98
2018-06-07T05:49:50.960Z,26.93
2018-06-07T05:50:22.185Z,26.97
2018-06-07T05:50:53.361Z,26.86
2018-06-07T05:51:24.585Z,26.77
2018-06-07T05:51:55.843Z,26.64
2018-06-07T05:52:27.204Z,26.65
2018-06-07T05:52:58.389Z,26.64
2018-06-07T05:53:29.648Z,26.61
2018-06-07T05:54:00.840Z,26.62
2018-06-07T05:54:32.085Z,26.67
2018-06-07T05:55:03.310Z,26.65
2018-06-07T05:55:34.566Z,26.52
2018-06-07T05:56:05.767Z,26.39
2018-06-07T05:56:36.987Z,26.38
2018-06-07T05:57:08.182Z,26.30
2018-06-07T05:57:39.435Z,26.29
2018-06-07T05:58:10.630Z,26.32
2018-06-07T05:58:41.870Z,26.36
2018-06-07T05:59:13.077Z,26.37
2018-06-07T05:59:44.264Z,26.37
2018-06-07T06:00:15.496Z,26.37
2018-06-07T06:00:46.764Z,26.37
2018-06-07T06:01:18.020Z,26.34
2018-06-07T06:01:50.440Z,26.30
2018-06-07T06:02:21.667Z,26.38
2018-06-07T06:02:52.945Z,26.45
2018-06-07T06:03:24.161Z,26.37
2018-06-07T06:03:55.385Z,26.25
2018-06-07T06:04:26.560Z,26.26
2018-06-07T06:04:57.772Z,26.36
2018-06-07T06:05:29.019Z,26.31
2018-06-07T06:06:00.230Z,26.24
2018-06-07T06:06:31.471Z,26.28
2018-06-07T06:07:02.678Z,26.25
2018-06-07T06:07:33.944Z,26.18
2018-06-07T06:08:05.180Z,26.17
2018-06-07T06:08:36.361Z,26.18
2018-06-07T06:09:07.554Z,26.21
2018-06-07T06:09:38.821Z,26.22
2018-06-07T06:10:10.088Z,26.27
2018-06-07T06:10:42.483Z,26.23
2018-06-07T06:11:13.733Z,26.30
2018-06-07T06:11:44.955Z,26.37
2018-06-07T06:12:16.162Z,26.40
2018-06-07T06:12:47.349Z,26.34
2018-06-07T06:13:18.568Z,26.33
2018-06-07T06:13:49.744Z,26.30
2018-06-07T06:14:20.924Z,26.29
2018-06-07T06:14:52.102Z,26.31
2018-06-07T06:15:23.332Z,26.23
2018-06-07T06:15:54.609Z,26.25
2018-06-07T06:16:25.797Z,26.35
2018-06-07T06:16:56.972Z,26.40
2018-06-07T06:17:28.218Z,26.34
2018-06-07T06:17:59.401Z,26.31
2018-06-07T06:18:30.612Z,26.22
2018-06-07T06:19:02.743Z,26.22
2018-06-07T06:19:33.908Z,26.21
2018-06-07T06:20:05.157Z,26.15
2018-06-07T06:20:36.329Z,26.14
2018-06-07T06:21:07.517Z,26.14
2018-06-07T06:21:38.745Z,26.19
2018-06-07T06:22:09.941Z,26.11
2018-06-07T06:22:41.073Z,26.22
2018-06-07T06:23:12.358Z,26.16
2018-06-07T06:23:43.613Z,26.16
2018-06-07T06:24:14.853Z,26.09
2018-06-07T06:24:46.093Z,26.12
2018-06-07T06:25:17.281Z,26.16
2018-06-07T06:25:48.456Z,26.22
2018-06-07T06:26:19.689Z,26.26
2018-06-07T06:26:50.927Z,26.34
2018-06-07T06:27:22.125Z,26.37
2018-06-07T06:27:54.219Z,26.38
2018-06-07T06:28:25.449Z,26.48
2018-06-07T06:28:56.665Z,26.50
2018-06-07T06:29:27.852Z,26.63
2018-06-07T06:29:59.091Z,26.75
2018-06-07T06:30:30.316Z,26.84
2018-06-07T06:31:01.497Z,26.94
2018-06-07T06:31:32.674Z,26.99
2018-06-07T06:32:03.904Z,26.94
2018-06-07T06:32:35.644Z,26.83
2018-06-07T06:33:06.837Z,26.86
2018-06-07T06:33:38.021Z,26.16
2018-06-07T06:34:09.305Z,27.01
2018-06-07T06:34:40.497Z,26.99
2018-06-07T06:35:11.742Z,26.89
2018-06-07T06:35:42.928Z,26.92
2018-06-07T06:36:14.100Z,26.85
2018-06-07T06:36:45.272Z,26.91
2018-06-07T06:37:16.515Z,26.98
2018-06-07T06:37:47.753Z,27.04
2018-06-07T06:38:18.994Z,27.07
2018-06-07T06:38:50.180Z,27.08
2018-06-07T06:39:21.451Z,27.06
2018-06-07T06:39:52.663Z,27.05
2018-06-07T06:40:23.909Z,27.05
2018-06-07T06:40:55.108Z,27.02
2018-06-07T06:41:26.341Z,27.03
2018-06-07T06:41:57.537Z,27.00
2018-06-07T06:42:28.810Z,26.98
2018-06-07T06:43:00.001Z,26.97
2018-06-07T06:43:31.192Z,26.94